Time;durP1;ratioP1;P1;durP2;ratioP2;P2;SDS_P1;SDS_P2;PMS_P1;PMS_P2;Temp;Humidity;BMP_temperature;BMP_pressure;BME280_temperature;BME280_humidity;BME280_pressure;Samples;Min_cycle;Max_cycle;Signal;HPM_P1;HPM_P2
2023/03/28 00:00:53;;;;;;;;;;;3.60;99.90;;;;;;2057960;28;20521;-74
2023/03/28 00:01:53;;;;;;;;;;;3.60;99.90;;;;;;2068377;28;19913;-74
2023/03/28 00:02:54;;;;;;;;;;;3.60;99.90;;;;;;2066137;28;19909;-74
2023/03/28 00:03:55;;;;;;;;;;;3.60;99.90;;;;;;2058448;28;19916;-74
2023/03/28 00:04:56;;;;;;;;;;;3.60;99.90;;;;;;2059437;28;19917;-74
2023/03/28 00:05:59;;;;;;;;;;;3.60;99.90;;;;;;2060723;28;19914;-74
2023/03/28 00:06:59;;;;;;;;;;;3.50;99.90;;;;;;2058950;28;19909;-74
2023/03/28 00:08:00;;;;;;;;;;;3.50;99.90;;;;;;2059701;28;19909;-74
2023/03/28 00:09:00;;;;;;;;;;;3.50;99.90;;;;;;2059173;28;19909;-74
2023/03/28 00:10:02;;;;;;;;;;;3.50;99.90;;;;;;2059216;28;19905;-74
2023/03/28 00:11:04;;;;;;;;;;;3.50;99.90;;;;;;2057512;28;20020;-74
2023/03/28 00:12:05;;;;;;;;;;;3.50;99.90;;;;;;2061219;28;19910;-74
2023/03/28 00:13:05;;;;;;;;;;;3.50;99.90;;;;;;2059673;28;19914;-74
2023/03/28 00:14:07;;;;;;;;;;;3.50;99.90;;;;;;2061272;28;19914;-74
2023/03/28 00:15:08;;;;;;;;;;;3.40;99.90;;;;;;2066801;28;19909;-74
2023/03/28 00:16:11;;;;;;;;;;;3.40;99.90;;;;;;2059271;28;19963;-73
2023/03/28 00:17:12;;;;;;;;;;;3.40;99.90;;;;;;2058382;28;20345;-74
2023/03/28 00:18:13;;;;;;;;;;;3.40;99.90;;;;;;2059612;28;19909;-74
2023/03/28 00:19:14;;;;;;;;;;;3.40;99.90;;;;;;2062484;28;19913;-74
2023/03/28 00:20:16;;;;;;;;;;;3.40;99.90;;;;;;2061846;28;19916;-74
2023/03/28 00:21:22;;;;;;;;;;;3.40;99.90;;;;;;2060571;28;19906;-74
2023/03/28 00:22:22;;;;;;;;;;;3.30;99.90;;;;;;2061059;28;19972;-74
2023/03/28 00:23:23;;;;;;;;;;;3.30;99.90;;;;;;2059925;28;19910;-74
2023/03/28 00:24:24;;;;;;;;;;;3.30;99.90;;;;;;2058921;28;19964;-74
2023/03/28 00:25:25;;;;;;;;;;;3.30;99.90;;;;;;2066679;28;20505;-74
2023/03/28 00:26:27;;;;;;;;;;;3.30;99.90;;;;;;2067717;28;19920;-74
2023/03/28 00:27:27;;;;;;;;;;;3.30;99.90;;;;;;2059179;28;19914;-74
2023/03/28 00:28:27;;;;;;;;;;;3.30;99.90;;;;;;2064904;28;19909;-74
2023/03/28 00:29:28;;;;;;;;;;;3.30;99.90;;;;;;2064711;28;19953;-74
2023/03/28 00:30:29;;;;;;;;;;;3.20;99.90;;;;;;2058980;28;20018;-74
2023/03/28 00:31:31;;;;;;;;;;;3.20;99.90;;;;;;2057067;28;20392;-74
2023/03/28 00:32:32;;;;;;;;;;;3.20;99.90;;;;;;2059045;28;19918;-74
2023/03/28 00:33:32;;;;;;;;;;;3.20;99.90;;;;;;2060773;28;19906;-74
2023/03/28 00:34:33;;;;;;;;;;;3.20;99.90;;;;;;2060832;28;20401;-74
2023/03/28 00:35:34;;;;;;;;;;;3.10;99.90;;;;;;2060281;28;20330;-74
2023/03/28 00:36:37;;;;;;;;;;;3.20;99.90;;;;;;2066769;28;19913;-74
2023/03/28 00:37:40;;;;;;;;;;;3.10;99.90;;;;;;2059828;28;19909;-73
2023/03/28 00:38:41;;;;;;;;;;;3.10;99.90;;;;;;2059073;28;19917;-74
2023/03/28 00:39:42;;;;;;;;;;;3.10;99.90;;;;;;2060079;28;19949;-74
2023/03/28 00:40:44;;;;;;;;;;;3.10;99.90;;;;;;2059859;28;19928;-74
2023/03/28 00:41:45;;;;;;;;;;;3.10;99.90;;;;;;2058203;28;20370;-74
2023/03/28 00:42:45;;;;;;;;;;;3.10;99.90;;;;;;2059022;28;20365;-74
2023/03/28 00:43:48;;;;;;;;;;;3.00;99.90;;;;;;2060800;28;19910;-74
2023/03/28 00:44:51;;;;;;;;;;;3.00;99.90;;;;;;2060423;28;19914;-74
2023/03/28 00:45:51;;;;;;;;;;;3.00;99.90;;;;;;2059501;28;19921;-74
2023/03/28 00:46:52;;;;;;;;;;;3.00;99.90;;;;;;2059698;28;19949;-74
2023/03/28 00:48:00;;;;;;;;;;;3.00;99.90;;;;;;2059924;28;19913;-74
2023/03/28 00:49:02;;;;;;;;;;;3.00;99.90;;;;;;2059787;28;19965;-74
2023/03/28 00:50:04;;;;;;;;;;;3.00;99.90;;;;;;2062305;28;20791;-74
2023/03/28 00:51:05;;;;;;;;;;;3.00;99.90;;;;;;2062495;28;19910;-74
2023/03/28 00:52:06;;;;;;;;;;;3.00;99.90;;;;;;2059325;28;19925;-74
2023/03/28 00:53:08;;;;;;;;;;;2.90;99.90;;;;;;2058780;28;19918;-74
2023/03/28 00:54:11;;;;;;;;;;;2.90;99.90;;;;;;2059294;28;20687;-74
2023/03/28 00:55:15;;;;;;;;;;;2.90;99.90;;;;;;2058796;28;19914;-74
2023/03/28 00:56:17;;;;;;;;;;;2.90;99.90;;;;;;2059544;28;19921;-74
2023/03/28 00:57:17;;;;;;;;;;;2.90;99.90;;;;;;2060012;28;19921;-74
2023/03/28 00:58:23;;;;;;;;;;;2.80;99.90;;;;;;2058357;28;19979;-74
2023/03/28 00:59:25;;;;;;;;;;;2.90;99.90;;;;;;2058194;28;20266;-74
2023/03/28 01:00:27;;;;;;;;;;;2.80;99.90;;;;;;2066136;28;20397;-74
2023/03/28 01:01:28;;;;;;;;;;;2.80;99.90;;;;;;2065651;28;19912;-74
2023/03/28 01:02:28;;;;;;;;;;;2.80;99.90;;;;;;2060126;28;20001;-74
2023/03/28 01:03:32;;;;;;;;;;;2.80;99.90;;;;;;2074837;28;19964;-74
2023/03/28 01:04:38;;;;;;;;;;;2.70;99.90;;;;;;2073837;28;19909;-74
2023/03/28 01:05:40;;;;;;;;;;;2.70;99.90;;;;;;2059498;28;20023;-74
2023/03/28 01:06:45;;;;;;;;;;;2.70;99.90;;;;;;2059481;28;19906;-74
2023/03/28 01:07:48;;;;;;;;;;;2.70;99.90;;;;;;2058641;28;20381;-74
2023/03/28 01:08:49;;;;;;;;;;;2.70;99.90;;;;;;2061081;28;19918;-74
2023/03/28 01:09:50;;;;;;;;;;;2.70;99.90;;;;;;2073394;28;19909;-74
2023/03/28 01:10:51;;;;;;;;;;;2.70;99.90;;;;;;2075350;28;19905;-74
2023/03/28 01:11:53;;;;;;;;;;;2.70;99.90;;;;;;2058174;28;19914;-73
2023/03/28 01:12:54;;;;;;;;;;;2.60;99.90;;;;;;2065154;28;19917;-74
2023/03/28 01:13:57;;;;;;;;;;;2.70;99.90;;;;;;2058723;28;19914;-74
2023/03/28 01:14:59;;;;;;;;;;;2.60;99.90;;;;;;2059967;28;19949;-74
2023/03/28 01:16:01;;;;;;;;;;;2.60;99.90;;;;;;2056220;28;19997;-74
2023/03/28 01:17:01;;;;;;;;;;;2.60;99.90;;;;;;2061485;28;20000;-74
2023/03/28 01:18:02;;;;;;;;;;;2.60;99.90;;;;;;2057472;28;19910;-74
2023/03/28 01:19:03;;;;;;;;;;;2.50;99.90;;;;;;2059050;28;20413;-74
2023/03/28 01:20:04;;;;;;;;;;;2.60;99.90;;;;;;2058861;28;19980;-74
2023/03/28 01:21:05;;;;;;;;;;;2.60;99.90;;;;;;2059127;28;19914;-74
2023/03/28 01:22:14;;;;;;;;;;;2.50;99.90;;;;;;2058714;28;20656;-74
2023/03/28 01:23:36;;;;;;;;;;;2.50;99.90;;;;;;2060565;28;19964;-74
2023/03/28 01:24:54;;;;;;;;;;;2.50;99.90;;;;;;2058840;28;19913;-74
2023/03/28 01:25:58;;;;;;;;;;;2.50;99.90;;;;;;2059538;28;19976;-74
2023/03/28 01:26:58;;;;;;;;;;;2.50;99.90;;;;;;2059193;28;20373;-74
2023/03/28 01:28:02;;;;;;;;;;;2.50;99.90;;;;;;2058737;28;19910;-74
2023/03/28 01:29:12;;;;;;;;;;;2.50;99.90;;;;;;2065993;28;19914;-74
2023/03/28 01:30:32;;;;;;;;;;;2.50;99.90;;;;;;2064388;28;20423;-74
2023/03/28 01:31:33;;;;;;;;;;;2.40;99.90;;;;;;2066739;28;19909;-74
2023/03/28 01:32:49;;;;;;;;;;;2.40;99.90;;;;;;2065064;28;19913;-74
2023/03/28 01:33:59;;;;;;;;;;;2.40;99.90;;;;;;2059093;28;20001;-74
2023/03/28 01:35:09;;;;;;;;;;;2.40;99.90;;;;;;2057477;28;20603;-74
2023/03/28 01:36:15;;;;;;;;;;;2.40;99.90;;;;;;2059586;28;19924;-74
2023/03/28 01:37:30;;;;;;;;;;;2.40;99.90;;;;;;2058822;28;19910;-74
2023/03/28 01:38:36;;;;;;;;;;;2.40;99.90;;;;;;2061371;28;19910;-74
2023/03/28 01:39:52;;;;;;;;;;;2.40;99.90;;;;;;2059837;28;20358;-74
2023/03/28 01:41:07;;;;;;;;;;;2.30;99.90;;;;;;2058471;28;19914;-74
2023/03/28 01:42:20;;;;;;;;;;;2.30;99.90;;;;;;2058991;28;19916;-74
2023/03/28 01:43:34;;;;;;;;;;;2.30;99.90;;;;;;2058616;28;19917;-74
2023/03/28 01:44:53;;;;;;;;;;;2.30;99.90;;;;;;2060097;28;20393;-74
2023/03/28 01:46:02;;;;;;;;;;;2.30;99.90;;;;;;2059064;28;19918;-74
2023/03/28 01:47:12;;;;;;;;;;;2.20;99.90;;;;;;2059070;28;20048;-74
2023/03/28 01:48:19;;;;;;;;;;;2.20;99.90;;;;;;2058938;28;20381;-74
2023/03/28 01:49:25;;;;;;;;;;;2.20;99.90;;;;;;2060158;28;19914;-74
2023/03/28 01:50:31;;;;;;;;;;;2.20;99.90;;;;;;2057961;28;20301;-74
2023/03/28 01:51:36;;;;;;;;;;;2.20;99.90;;;;;;2073888;28;19912;-74
2023/03/28 01:52:51;;;;;;;;;;;2.20;99.90;;;;;;2073393;28;19945;-74
2023/03/28 01:54:04;;;;;;;;;;;2.20;99.90;;;;;;2059235;28;20004;-74
2023/03/28 01:55:08;;;;;;;;;;;2.20;99.90;;;;;;2066442;28;20333;-74
2023/03/28 01:56:36;;;;;;;;;;;2.20;99.90;;;;;;2066381;28;19913;-74
2023/03/28 01:57:55;;;;;;;;;;;2.10;99.90;;;;;;2059058;28;19917;-74
2023/03/28 01:58:56;;;;;;;;;;;2.10;99.90;;;;;;2058028;28;20454;-74
2023/03/28 02:00:11;;;;;;;;;;;2.10;99.90;;;;;;2064952;28;19922;-74
2023/03/28 02:01:21;;;;;;;;;;;2.10;99.90;;;;;;2064918;28;20918;-74
2023/03/28 02:02:34;;;;;;;;;;;2.10;99.90;;;;;;2058910;28;19921;-74
2023/03/28 02:03:36;;;;;;;;;;;2.10;99.90;;;;;;2058834;28;20369;-74
2023/03/28 02:04:38;;;;;;;;;;;2.10;99.90;;;;;;2057852;28;19910;-74
2023/03/28 02:05:39;;;;;;;;;;;2.00;99.90;;;;;;2057773;28;20182;-74
2023/03/28 02:06:41;;;;;;;;;;;2.00;99.90;;;;;;2057995;28;19957;-74
2023/03/28 02:07:43;;;;;;;;;;;2.00;99.90;;;;;;2058035;28;19917;-74
2023/03/28 02:08:44;;;;;;;;;;;2.00;99.90;;;;;;2059931;28;20270;-74
2023/03/28 02:09:45;;;;;;;;;;;2.00;99.90;;;;;;2058523;28;19906;-74
2023/03/28 02:10:47;;;;;;;;;;;2.00;99.90;;;;;;2058651;28;19956;-74
2023/03/28 02:11:49;;;;;;;;;;;2.00;99.90;;;;;;2058304;28;19929;-74
2023/03/28 02:12:57;;;;;;;;;;;2.00;99.90;;;;;;2062729;28;19961;-74
2023/03/28 02:14:07;;;;;;;;;;;2.00;99.90;;;;;;2062052;28;20405;-74
2023/03/28 02:15:10;;;;;;;;;;;2.00;99.90;;;;;;2058059;28;20009;-74
2023/03/28 02:16:12;;;;;;;;;;;2.00;99.90;;;;;;2057752;28;20064;-74
2023/03/28 02:17:14;;;;;;;;;;;2.00;99.90;;;;;;2065016;28;19909;-74
2023/03/28 02:18:19;;;;;;;;;;;2.00;99.90;;;;;;2066038;28;19916;-74
2023/03/28 02:19:23;;;;;;;;;;;2.00;99.90;;;;;;2059207;28;20441;-74
2023/03/28 02:20:26;;;;;;;;;;;2.00;99.90;;;;;;2056270;28;20449;-74
2023/03/28 02:21:30;;;;;;;;;;;2.00;99.90;;;;;;2058097;28;20732;-74
2023/03/28 02:22:34;;;;;;;;;;;2.00;99.90;;;;;;2058806;28;19910;-74
2023/03/28 02:23:41;;;;;;;;;;;2.00;99.90;;;;;;2058352;28;19910;-74
2023/03/28 02:24:41;;;;;;;;;;;2.00;99.90;;;;;;2060127;28;19910;-74
2023/03/28 02:25:42;;;;;;;;;;;1.90;99.90;;;;;;2057412;28;19910;-73
2023/03/28 02:26:43;;;;;;;;;;;1.90;99.90;;;;;;2058772;28;19921;-74
2023/03/28 02:27:44;;;;;;;;;;;1.90;99.90;;;;;;2060495;28;19909;-74
2023/03/28 02:28:47;;;;;;;;;;;1.90;99.90;;;;;;2057168;28;20388;-74
2023/03/28 02:29:48;;;;;;;;;;;1.90;99.90;;;;;;2058205;28;19910;-74
2023/03/28 02:30:50;;;;;;;;;;;1.90;99.90;;;;;;2059911;28;19961;-74
2023/03/28 02:31:51;;;;;;;;;;;1.90;99.90;;;;;;2059574;28;19920;-74
2023/03/28 02:32:57;;;;;;;;;;;1.90;99.90;;;;;;2059177;28;19917;-74
2023/03/28 02:33:57;;;;;;;;;;;1.90;99.90;;;;;;2067744;28;19959;-74
2023/03/28 02:34:59;;;;;;;;;;;1.90;99.90;;;;;;2060586;28;19965;-74
2023/03/28 02:35:59;;;;;;;;;;;1.90;99.90;;;;;;2058505;28;19913;-74
2023/03/28 02:37:25;;;;;;;;;;;1.90;99.90;;;;;;2062022;28;19910;-74
2023/03/28 02:38:29;;;;;;;;;;;1.90;99.90;;;;;;2060919;28;19960;-74
2023/03/28 02:39:30;;;;;;;;;;;1.90;99.90;;;;;;2061063;28;19920;-74
2023/03/28 02:40:31;;;;;;;;;;;1.90;99.90;;;;;;2056938;28;19917;-74
2023/03/28 02:41:54;;;;;;;;;;;1.80;99.90;;;;;;2075345;28;19909;-74
2023/03/28 02:43:02;;;;;;;;;;;1.80;99.90;;;;;;2066082;28;19910;-74
2023/03/28 02:44:02;;;;;;;;;;;1.80;99.90;;;;;;2060193;28;20380;-74
2023/03/28 02:45:12;;;;;;;;;;;1.80;99.90;;;;;;2060129;28;20332;-74
2023/03/28 02:46:18;;;;;;;;;;;1.80;99.90;;;;;;2059556;28;19914;-74
2023/03/28 02:47:21;;;;;;;;;;;1.80;99.90;;;;;;2059314;28;20120;-74
2023/03/28 02:48:30;;;;;;;;;;;1.80;99.90;;;;;;2060227;28;19918;-74
2023/03/28 02:49:44;;;;;;;;;;;1.80;99.90;;;;;;2060649;28;19913;-74
2023/03/28 02:51:05;;;;;;;;;;;1.80;99.90;;;;;;2058133;28;19956;-74
2023/03/28 02:52:08;;;;;;;;;;;1.80;99.90;;;;;;2060247;28;19922;-74
2023/03/28 02:53:26;;;;;;;;;;;1.80;99.90;;;;;;2060277;28;19917;-74
2023/03/28 02:54:34;;;;;;;;;;;1.70;99.90;;;;;;2058283;28;19910;-74
2023/03/28 02:55:53;;;;;;;;;;;1.70;99.90;;;;;;2060096;28;19960;-74
2023/03/28 02:57:00;;;;;;;;;;;1.70;99.90;;;;;;2060645;28;19914;-74
2023/03/28 02:58:06;;;;;;;;;;;1.70;99.90;;;;;;2059762;28;19917;-74
2023/03/28 02:59:12;;;;;;;;;;;1.70;99.90;;;;;;2061167;28;19916;-74
2023/03/28 03:00:15;;;;;;;;;;;1.70;99.90;;;;;;2059530;28;20365;-74
2023/03/28 03:01:16;;;;;;;;;;;1.70;99.90;;;;;;2061084;28;20385;-74
2023/03/28 03:02:19;;;;;;;;;;;1.60;99.90;;;;;;2059394;28;21957;-74
2023/03/28 03:03:20;;;;;;;;;;;1.60;99.90;;;;;;2063346;28;19917;-74
2023/03/28 03:04:21;;;;;;;;;;;1.60;99.90;;;;;;2062560;28;19916;-74
2023/03/28 03:05:21;;;;;;;;;;;1.60;99.90;;;;;;2060854;28;20322;-74
2023/03/28 03:06:22;;;;;;;;;;;1.60;99.90;;;;;;2059917;28;19925;-73
2023/03/28 03:07:22;;;;;;;;;;;1.60;99.90;;;;;;2058566;28;19922;-74
2023/03/28 03:08:23;;;;;;;;;;;1.60;99.90;;;;;;2059673;28;20398;-74
2023/03/28 03:09:25;;;;;;;;;;;1.60;99.90;;;;;;2060998;28;19916;-74
2023/03/28 03:10:26;;;;;;;;;;;1.60;99.90;;;;;;2057783;28;19913;-73
2023/03/28 03:11:27;;;;;;;;;;;1.60;99.90;;;;;;2060320;28;19905;-74
2023/03/28 03:12:28;;;;;;;;;;;1.60;99.90;;;;;;2059482;28;19910;-74
2023/03/28 03:13:28;;;;;;;;;;;1.60;99.90;;;;;;2059517;28;19913;-74
2023/03/28 03:14:28;;;;;;;;;;;1.60;99.90;;;;;;2058994;28;19918;-73
2023/03/28 03:15:29;;;;;;;;;;;1.60;99.90;;;;;;2061967;28;19912;-73
2023/03/28 03:16:30;;;;;;;;;;;1.60;99.90;;;;;;2061680;28;20276;-73
2023/03/28 03:17:30;;;;;;;;;;;1.60;99.90;;;;;;2060673;28;19945;-73
2023/03/28 03:18:31;;;;;;;;;;;1.50;99.90;;;;;;2061186;28;19913;-73
2023/03/28 03:19:31;;;;;;;;;;;1.50;99.90;;;;;;2060533;28;19958;-74
2023/03/28 03:20:32;;;;;;;;;;;1.50;99.90;;;;;;2059726;28;20369;-74
2023/03/28 03:21:32;;;;;;;;;;;1.50;99.90;;;;;;2060005;28;19910;-74
2023/03/28 03:22:33;;;;;;;;;;;1.50;99.90;;;;;;2059935;28;20329;-74
2023/03/28 03:23:35;;;;;;;;;;;1.50;99.90;;;;;;2060143;28;19913;-74
2023/03/28 03:24:36;;;;;;;;;;;1.50;99.90;;;;;;2058675;28;19910;-74
2023/03/28 03:25:36;;;;;;;;;;;1.50;99.90;;;;;;2059235;28;20448;-74
2023/03/28 03:26:37;;;;;;;;;;;1.50;99.90;;;;;;2059516;28;19997;-74
2023/03/28 03:27:39;;;;;;;;;;;1.50;99.90;;;;;;2060419;28;19913;-74
2023/03/28 03:28:40;;;;;;;;;;;1.50;99.90;;;;;;2065199;28;20262;-74
2023/03/28 03:29:40;;;;;;;;;;;1.50;99.90;;;;;;2064907;28;20055;-74
2023/03/28 03:30:41;;;;;;;;;;;1.40;99.90;;;;;;2060138;28;19909;-74
2023/03/28 03:31:41;;;;;;;;;;;1.40;99.90;;;;;;2059571;28;20085;-73
2023/03/28 03:32:42;;;;;;;;;;;1.40;99.90;;;;;;2058082;28;19910;-74
2023/03/28 03:33:43;;;;;;;;;;;1.40;99.90;;;;;;2062211;28;19910;-73
2023/03/28 03:34:43;;;;;;;;;;;1.40;99.90;;;;;;2058831;28;19906;-73
2023/03/28 03:35:47;;;;;;;;;;;1.40;99.90;;;;;;2061799;28;19917;-74
2023/03/28 03:36:48;;;;;;;;;;;1.40;99.90;;;;;;2061129;28;19914;-74
2023/03/28 03:37:49;;;;;;;;;;;1.40;99.90;;;;;;2060317;28;20422;-74
2023/03/28 03:38:51;;;;;;;;;;;1.40;99.90;;;;;;2060775;28;20312;-74
2023/03/28 03:39:51;;;;;;;;;;;1.40;99.90;;;;;;2061132;28;20009;-73
2023/03/28 03:40:52;;;;;;;;;;;1.30;99.90;;;;;;2060348;28;19917;-73
2023/03/28 03:41:52;;;;;;;;;;;1.30;99.90;;;;;;2067707;28;19916;-73
2023/03/28 03:42:53;;;;;;;;;;;1.30;99.90;;;;;;2066093;28;20019;-73
2023/03/28 03:43:53;;;;;;;;;;;1.30;99.90;;;;;;2057807;28;19909;-74
2023/03/28 03:44:54;;;;;;;;;;;1.40;99.90;;;;;;2074549;28;20400;-74
2023/03/28 03:45:55;;;;;;;;;;;1.30;99.90;;;;;;2074258;28;20800;-74
2023/03/28 03:46:56;;;;;;;;;;;1.30;99.90;;;;;;2059560;28;19980;-74
2023/03/28 03:47:56;;;;;;;;;;;1.30;99.90;;;;;;2058154;28;19971;-74
2023/03/28 03:48:57;;;;;;;;;;;1.30;99.90;;;;;;2059401;28;19909;-74
2023/03/28 03:49:57;;;;;;;;;;;1.30;99.90;;;;;;2058490;28;19953;-73
2023/03/28 03:50:58;;;;;;;;;;;1.30;99.90;;;;;;2058666;28;19906;-73
2023/03/28 03:51:58;;;;;;;;;;;1.30;99.90;;;;;;2061752;28;19972;-73
2023/03/28 03:52:59;;;;;;;;;;;1.30;99.90;;;;;;2061991;28;19958;-74
2023/03/28 03:54:00;;;;;;;;;;;1.30;99.90;;;;;;2075106;28;19964;-73
2023/03/28 03:55:01;;;;;;;;;;;1.20;99.90;;;;;;2077539;28;20007;-73
2023/03/28 03:56:02;;;;;;;;;;;1.20;99.90;;;;;;2057446;28;20001;-73
2023/03/28 03:57:02;;;;;;;;;;;1.20;99.90;;;;;;2059433;28;19914;-73
2023/03/28 03:58:02;;;;;;;;;;;1.20;99.90;;;;;;2061101;28;19949;-74
2023/03/28 03:59:04;;;;;;;;;;;1.30;99.90;;;;;;2058204;28;20041;-73
2023/03/28 04:00:11;;;;;;;;;;;1.20;99.90;;;;;;2062364;28;19921;-74
2023/03/28 04:01:14;;;;;;;;;;;1.20;99.90;;;;;;2063615;28;19909;-74
2023/03/28 04:02:15;;;;;;;;;;;1.20;99.90;;;;;;2058778;28;19905;-73
2023/03/28 04:03:15;;;;;;;;;;;1.20;99.90;;;;;;2059710;28;19920;-73
2023/03/28 04:04:16;;;;;;;;;;;1.20;99.90;;;;;;2060021;28;20808;-73
2023/03/28 04:05:16;;;;;;;;;;;1.20;99.90;;;;;;2060513;28;19918;-73
2023/03/28 04:06:18;;;;;;;;;;;1.20;99.90;;;;;;2067237;28;19981;-73
2023/03/28 04:07:18;;;;;;;;;;;1.20;99.90;;;;;;2057964;28;19913;-73
2023/03/28 04:08:19;;;;;;;;;;;1.20;99.90;;;;;;2059246;28;19913;-73
2023/03/28 04:09:23;;;;;;;;;;;1.20;99.90;;;;;;2069759;28;20419;-73
2023/03/28 04:10:24;;;;;;;;;;;1.20;99.90;;;;;;2064071;28;19961;-73
2023/03/28 04:11:24;;;;;;;;;;;1.20;99.90;;;;;;2059836;28;19906;-73
2023/03/28 04:12:25;;;;;;;;;;;1.20;99.90;;;;;;2066982;28;19952;-73
2023/03/28 04:13:25;;;;;;;;;;;1.20;99.90;;;;;;2067091;28;19916;-73
2023/03/28 04:14:26;;;;;;;;;;;1.10;99.90;;;;;;2060786;28;19906;-73
2023/03/28 04:15:26;;;;;;;;;;;1.10;99.90;;;;;;2060614;28;20052;-73
2023/03/28 04:16:28;;;;;;;;;;;1.10;99.90;;;;;;2062239;28;19910;-74
2023/03/28 04:17:33;;;;;;;;;;;1.10;99.90;;;;;;2062357;28;19933;-74
2023/03/28 04:18:34;;;;;;;;;;;1.10;99.90;;;;;;2060417;28;20370;-74
2023/03/28 04:19:39;;;;;;;;;;;1.10;99.90;;;;;;2059398;28;20499;-74
2023/03/28 04:20:40;;;;;;;;;;;1.10;99.90;;;;;;2065369;28;19910;-74
2023/03/28 04:21:41;;;;;;;;;;;1.10;99.90;;;;;;2065259;28;20254;-74
2023/03/28 04:22:41;;;;;;;;;;;1.10;99.90;;;;;;2059167;28;19910;-74
2023/03/28 04:23:42;;;;;;;;;;;1.10;99.90;;;;;;2061101;28;19914;-74
2023/03/28 04:24:43;;;;;;;;;;;1.10;99.90;;;;;;2065633;28;20348;-74
2023/03/28 04:25:44;;;;;;;;;;;1.10;99.90;;;;;;2065538;28;19910;-74
2023/03/28 04:26:44;;;;;;;;;;;1.00;99.90;;;;;;2060109;28;19938;-74
2023/03/28 04:27:47;;;;;;;;;;;1.00;99.90;;;;;;2059059;28;19914;-74
2023/03/28 04:28:48;;;;;;;;;;;1.00;99.90;;;;;;2062957;28;20012;-74
2023/03/28 04:29:52;;;;;;;;;;;1.00;99.90;;;;;;2061471;28;19918;-74
2023/03/28 04:30:56;;;;;;;;;;;1.00;99.90;;;;;;2060133;28;19921;-74
2023/03/28 04:31:57;;;;;;;;;;;1.00;99.90;;;;;;2061246;28;19914;-74
2023/03/28 04:32:58;;;;;;;;;;;1.00;99.90;;;;;;2060269;28;20024;-74
2023/03/28 04:33:59;;;;;;;;;;;1.00;99.90;;;;;;2059861;28;19949;-74
2023/03/28 04:34:59;;;;;;;;;;;1.00;99.90;;;;;;2057200;28;20527;-74
2023/03/28 04:36:01;;;;;;;;;;;1.00;99.90;;;;;;2059224;28;19910;-74
2023/03/28 04:37:02;;;;;;;;;;;1.00;99.90;;;;;;2059311;28;20072;-74
2023/03/28 04:38:02;;;;;;;;;;;1.00;99.90;;;;;;2066406;28;19953;-74
2023/03/28 04:39:03;;;;;;;;;;;1.00;99.90;;;;;;2065956;28;20569;-74
2023/03/28 04:40:09;;;;;;;;;;;1.00;99.90;;;;;;2058683;28;20491;-74
2023/03/28 04:41:10;;;;;;;;;;;1.00;99.90;;;;;;2062124;28;19910;-74
2023/03/28 04:42:11;;;;;;;;;;;0.90;99.90;;;;;;2053634;28;19921;-74
2023/03/28 04:43:12;;;;;;;;;;;1.00;99.90;;;;;;2059398;28;19917;-74
2023/03/28 04:44:12;;;;;;;;;;;1.00;99.90;;;;;;2059673;28;20436;-74
2023/03/28 04:45:13;;;;;;;;;;;0.90;99.90;;;;;;2060016;28;19917;-74
2023/03/28 04:46:13;;;;;;;;;;;0.90;99.90;;;;;;2059866;28;19918;-73
2023/03/28 04:47:14;;;;;;;;;;;0.90;99.90;;;;;;2059797;28;19917;-73
2023/03/28 04:48:14;;;;;;;;;;;0.90;99.90;;;;;;2058502;28;20374;-74
2023/03/28 04:49:15;;;;;;;;;;;0.90;99.90;;;;;;2061897;28;19910;-74
2023/03/28 04:50:15;;;;;;;;;;;0.90;99.90;;;;;;2058099;28;19913;-74
2023/03/28 04:51:16;;;;;;;;;;;0.90;99.90;;;;;;2060301;28;19960;-74
2023/03/28 04:52:16;;;;;;;;;;;0.90;99.90;;;;;;2058834;28;19914;-74
2023/03/28 04:53:16;;;;;;;;;;;0.90;99.90;;;;;;2059119;28;20005;-74
2023/03/28 04:54:17;;;;;;;;;;;0.90;99.90;;;;;;2058411;28;19922;-73
2023/03/28 04:55:18;;;;;;;;;;;0.90;99.90;;;;;;2057554;28;19914;-73
2023/03/28 04:56:21;;;;;;;;;;;0.90;99.90;;;;;;2062547;28;19917;-74
2023/03/28 04:57:21;;;;;;;;;;;0.90;99.90;;;;;;2050625;28;19961;-74
2023/03/28 04:58:22;;;;;;;;;;;0.90;99.90;;;;;;2057499;28;20000;-74
2023/03/28 04:59:22;;;;;;;;;;;0.90;99.90;;;;;;2056409;28;19949;-74
2023/03/28 05:00:24;;;;;;;;;;;0.90;99.90;;;;;;2058741;28;21609;-74
2023/03/28 05:01:26;;;;;;;;;;;0.90;99.90;;;;;;2059838;28;21042;-74
2023/03/28 05:02:26;;;;;;;;;;;0.90;99.90;;;;;;2059307;28;19917;-74
2023/03/28 05:03:27;;;;;;;;;;;0.90;99.90;;;;;;2058297;28;19906;-74
2023/03/28 05:04:27;;;;;;;;;;;0.90;99.90;;;;;;2057739;28;19917;-74
2023/03/28 05:05:27;;;;;;;;;;;0.90;99.90;;;;;;2056293;28;20365;-74
2023/03/28 05:06:28;;;;;;;;;;;0.90;99.90;;;;;;2058607;28;20001;-74
2023/03/28 05:07:28;;;;;;;;;;;0.90;99.90;;;;;;2057744;28;19917;-74
2023/03/28 05:08:30;;;;;;;;;;;0.90;99.90;;;;;;2056824;28;19914;-74
2023/03/28 05:09:30;;;;;;;;;;;0.80;99.90;;;;;;2059761;28;19909;-74
2023/03/28 05:10:31;;;;;;;;;;;0.80;99.90;;;;;;2058384;28;20368;-74
2023/03/28 05:11:32;;;;;;;;;;;0.80;99.90;;;;;;2057752;28;19917;-73
2023/03/28 05:12:32;;;;;;;;;;;0.80;99.90;;;;;;2073486;28;20085;-73
2023/03/28 05:13:33;;;;;;;;;;;0.80;99.90;;;;;;2073200;28;19913;-73
2023/03/28 05:14:34;;;;;;;;;;;0.80;99.90;;;;;;2060259;28;19910;-73
2023/03/28 05:15:34;;;;;;;;;;;0.80;99.90;;;;;;2057926;28;19910;-74
2023/03/28 05:16:35;;;;;;;;;;;0.80;99.90;;;;;;2057387;28;20278;-74
2023/03/28 05:17:36;;;;;;;;;;;0.80;99.90;;;;;;2059044;28;19914;-74
2023/03/28 05:18:36;;;;;;;;;;;0.80;99.90;;;;;;2060110;28;19960;-74
2023/03/28 05:19:36;;;;;;;;;;;0.80;99.90;;;;;;2059200;28;19981;-74
2023/03/28 05:20:37;;;;;;;;;;;0.80;99.90;;;;;;2075372;28;19964;-74
2023/03/28 05:21:39;;;;;;;;;;;0.80;99.90;;;;;;2065993;28;19910;-74
2023/03/28 05:22:39;;;;;;;;;;;0.80;99.90;;;;;;2057624;28;19910;-73
2023/03/28 05:23:40;;;;;;;;;;;0.80;99.90;;;;;;2059581;28;19940;-73
2023/03/28 05:24:40;;;;;;;;;;;0.80;99.90;;;;;;2057137;28;19921;-73
2023/03/28 05:25:41;;;;;;;;;;;0.80;99.90;;;;;;2058502;28;19906;-73
2023/03/28 05:26:41;;;;;;;;;;;0.80;99.90;;;;;;2057504;28;19952;-73
2023/03/28 05:27:42;;;;;;;;;;;0.80;99.90;;;;;;2073584;28;19912;-74
2023/03/28 05:28:42;;;;;;;;;;;0.80;99.90;;;;;;2070247;28;20000;-74
2023/03/28 05:29:43;;;;;;;;;;;0.80;99.90;;;;;;2061296;28;19905;-73
2023/03/28 05:30:43;;;;;;;;;;;0.80;99.90;;;;;;2057699;28;20282;-73
2023/03/28 05:31:44;;;;;;;;;;;0.80;99.90;;;;;;2060836;28;20040;-74
2023/03/28 05:32:44;;;;;;;;;;;0.80;99.90;;;;;;2072458;28;20865;-74
2023/03/28 05:33:45;;;;;;;;;;;0.80;99.90;;;;;;2075837;28;19944;-74
2023/03/28 05:34:45;;;;;;;;;;;0.80;99.90;;;;;;2058427;28;20380;-74
2023/03/28 05:35:46;;;;;;;;;;;0.80;99.90;;;;;;2057734;28;19910;-74
2023/03/28 05:36:46;;;;;;;;;;;0.80;99.90;;;;;;2059108;28;20366;-73
2023/03/28 05:37:47;;;;;;;;;;;0.80;99.90;;;;;;2060103;28;20549;-73
2023/03/28 05:38:47;;;;;;;;;;;0.80;99.90;;;;;;2057890;28;19924;-73
2023/03/28 05:39:47;;;;;;;;;;;0.80;99.90;;;;;;2059652;28;20266;-73
2023/03/28 05:40:48;;;;;;;;;;;0.80;99.90;;;;;;2057956;28;20034;-73
2023/03/28 05:41:51;;;;;;;;;;;0.80;99.90;;;;;;2059277;28;19918;-73
2023/03/28 05:42:51;;;;;;;;;;;0.80;99.90;;;;;;2061308;28;19910;-74
2023/03/28 05:43:52;;;;;;;;;;;0.90;99.90;;;;;;2057779;28;20008;-74
2023/03/28 05:44:52;;;;;;;;;;;0.90;99.90;;;;;;2058427;28;20420;-74
2023/03/28 05:45:52;;;;;;;;;;;0.90;99.90;;;;;;2058735;28;19913;-74
2023/03/28 05:46:53;;;;;;;;;;;0.90;99.90;;;;;;2058500;28;19993;-73
2023/03/28 05:47:55;;;;;;;;;;;0.90;99.90;;;;;;2066547;28;19913;-73
2023/03/28 05:48:56;;;;;;;;;;;0.90;99.90;;;;;;2064151;28;20016;-73
2023/03/28 05:49:56;;;;;;;;;;;0.90;99.90;;;;;;2058612;28;19968;-73
2023/03/28 05:50:57;;;;;;;;;;;0.90;99.90;;;;;;2058680;28;19949;-73
2023/03/28 05:51:57;;;;;;;;;;;0.90;99.90;;;;;;2056613;28;20000;-74
2023/03/28 05:52:57;;;;;;;;;;;0.90;99.90;;;;;;2056858;28;20297;-73
2023/03/28 05:53:58;;;;;;;;;;;0.90;99.90;;;;;;2056172;28;20028;-73
2023/03/28 05:54:58;;;;;;;;;;;0.90;99.90;;;;;;2056638;28;21778;-74
2023/03/28 05:55:59;;;;;;;;;;;0.90;99.90;;;;;;2059478;28;19914;-74
2023/03/28 05:56:59;;;;;;;;;;;1.00;99.90;;;;;;2056505;28;19971;-74
2023/03/28 05:58:00;;;;;;;;;;;1.00;99.90;;;;;;2056831;28;19918;-74
2023/03/28 05:59:01;;;;;;;;;;;1.00;99.90;;;;;;2057946;28;19917;-74
2023/03/28 06:00:03;;;;;;;;;;;1.00;99.90;;;;;;2055921;28;19960;-74
2023/03/28 06:01:04;;;;;;;;;;;1.00;99.90;;;;;;2059162;28;19968;-74
2023/03/28 06:02:06;;;;;;;;;;;1.00;99.90;;;;;;2064926;28;19914;-74
2023/03/28 06:03:06;;;;;;;;;;;1.00;99.90;;;;;;2063934;28;20548;-74
2023/03/28 06:04:08;;;;;;;;;;;1.00;99.90;;;;;;2059177;28;19944;-74
2023/03/28 06:05:12;;;;;;;;;;;1.00;99.90;;;;;;2057129;28;19920;-74
2023/03/28 06:06:14;;;;;;;;;;;1.00;99.90;;;;;;2060997;28;19920;-73
2023/03/28 06:07:14;;;;;;;;;;;1.10;99.90;;;;;;2060008;28;19921;-73
2023/03/28 06:08:15;;;;;;;;;;;1.10;99.90;;;;;;2064946;28;19916;-73
2023/03/28 06:09:15;;;;;;;;;;;1.10;99.90;;;;;;2064996;28;19912;-74
2023/03/28 06:10:16;;;;;;;;;;;1.10;99.90;;;;;;2057982;28;20049;-74
2023/03/28 06:11:17;;;;;;;;;;;1.10;99.90;;;;;;2059429;28;19988;-74